Time;durP1;ratioP1;P1;durP2;ratioP2;P2;SDS_P1;SDS_P2;PMS_P1;PMS_P2;Temp;Humidity;BMP_temperature;BMP_pressure;BME280_temperature;BME280_humidity;BME280_pressure;Samples;Min_cycle;Max_cycle;Signal;HPM_P1;HPM_P2
2023/12/04 00:00:51;;;;;;;0.50;0.50;;;;;;;5.43;100.00;97315.06;5005966;28;20140;-63
2023/12/04 00:03:18;;;;;;;0.50;0.50;;;;;;;5.38;100.00;97317.19;5006760;28;20050;-65
2023/12/04 00:05:45;;;;;;;0.50;0.50;;;;;;;5.39;100.00;97313.31;5006732;28;20137;-62
2023/12/04 00:08:12;;;;;;;0.50;0.50;;;;;;;5.33;99.42;97336.59;5006352;28;20057;-60
2023/12/04 00:10:38;;;;;;;0.50;0.50;;;;;;;5.03;99.21;97299.22;5004919;28;20109;-61
2023/12/04 00:13:05;;;;;;;0.52;0.52;;;;;;;5.27;100.00;97322.25;5006146;28;20523;-60
2023/12/04 00:15:32;;;;;;;0.50;0.50;;;;;;;5.36;100.00;97319.47;5006166;28;20144;-61
2023/12/04 00:17:59;;;;;;;0.50;0.50;;;;;;;5.38;98.18;97325.44;5003421;28;20133;-62
2023/12/04 00:20:26;;;;;;;0.50;0.50;;;;;;;5.46;97.96;97330.91;4984969;28;20050;-60
2023/12/04 00:22:52;;;;;;;0.50;0.50;;;;;;;5.39;97.22;97307.84;4986328;28;20054;-61
2023/12/04 00:25:19;;;;;;;0.50;0.50;;;;;;;5.45;96.09;97328.47;4986283;28;20064;-61
2023/12/04 00:27:46;;;;;;;0.50;0.50;;;;;;;5.00;97.13;97272.44;4986551;28;20058;-62
2023/12/04 00:30:18;;;;;;;0.50;0.50;;;;;;;5.39;97.18;97341.56;4986247;28;20144;-62
2023/12/04 00:32:45;;;;;;;0.50;0.50;;;;;;;5.51;95.46;97332.66;4986608;28;20053;-62
2023/12/04 00:35:13;;;;;;;0.43;0.43;;;;;;;5.23;94.78;97293.03;4986073;28;20058;-65
2023/12/04 00:37:40;;;;;;;0.50;0.50;;;;;;;5.48;95.96;97338.81;4985853;28;20085;-63
2023/12/04 00:40:07;;;;;;;0.50;0.50;;;;;;;5.42;95.42;97342.88;4984843;28;20062;-61
2023/12/04 00:42:34;;;;;;;0.50;0.50;;;;;;;5.34;95.26;97335.47;4986378;28;20437;-62
2023/12/04 00:45:02;;;;;;;0.50;0.50;;;;;;;5.39;97.12;97338.03;4986493;28;20058;-62
2023/12/04 00:47:29;;;;;;;0.50;0.50;;;;;;;5.18;97.26;97296.78;4986357;28;20062;-61
2023/12/04 00:49:56;;;;;;;0.50;0.50;;;;;;;4.80;95.53;97240.25;4984854;28;20058;-62
2023/12/04 00:52:23;;;;;;;0.50;0.50;;;;;;;5.57;95.45;97347.81;4986150;28;20069;-61
2023/12/04 00:54:49;;;;;;;0.50;0.50;;;;;;;5.60;93.82;97355.38;4985969;28;20058;-62
2023/12/04 00:57:16;;;;;;;0.50;0.50;;;;;;;5.51;91.02;97366.44;4990971;28;20089;-62
2023/12/04 00:59:43;;;;;;;0.50;0.50;;;;;;;5.55;89.99;97356.38;5005763;28;20057;-62
2023/12/04 01:02:10;;;;;;;0.50;0.50;;;;;;;5.13;89.40;97299.69;5004251;28;20084;-64
2023/12/04 01:04:41;;;;;;;0.50;0.50;;;;;;;5.31;89.10;97316.91;5005849;28;20152;-61
2023/12/04 01:07:08;;;;;;;0.50;0.50;;;;;;;5.56;89.95;97380.00;5005403;28;20158;-62
2023/12/04 01:09:37;;;;;;;0.50;0.50;;;;;;;5.53;90.62;97368.84;5004208;28;20054;-63
2023/12/04 01:12:05;;;;;;;0.50;0.50;;;;;;;5.55;90.33;97383.84;5005183;28;20050;-62
2023/12/04 01:14:32;;;;;;;0.55;0.55;;;;;;;5.59;90.38;97384.00;5005271;28;20153;-62
2023/12/04 01:16:59;;;;;;;0.45;0.45;;;;;;;5.34;87.88;97343.72;5005395;28;20476;-62
2023/12/04 01:19:26;;;;;;;0.50;0.50;;;;;;;5.01;88.40;97290.53;5004070;28;20050;-63
2023/12/04 01:21:53;;;;;;;0.50;0.50;;;;;;;5.71;89.57;97406.91;5003789;28;20057;-62
2023/12/04 01:24:20;;;;;;;0.50;0.50;;;;;;;5.71;90.51;97397.84;5003180;28;20532;-62
2023/12/04 01:26:47;;;;;;;0.50;0.50;;;;;;;5.74;92.49;97399.94;5005210;28;20153;-62
2023/12/04 01:29:13;;;;;;;0.50;0.50;;;;;;;5.59;93.34;97400.50;5004853;28;20484;-61
2023/12/04 01:31:40;;;;;;;0.50;0.50;;;;;;;5.65;95.00;97399.16;5003489;28;20048;-62
2023/12/04 01:34:07;;;;;;;0.50;0.50;;;;;;;5.34;87.45;97412.38;5003837;28;20132;-63
2023/12/04 01:36:34;;;;;;;0.50;0.50;;;;;;;5.01;86.71;97362.69;5004944;28;20136;-62
2023/12/04 01:39:00;;;;;;;0.50;0.50;;;;;;;5.30;88.59;97397.66;5004951;28;20061;-62
2023/12/04 01:41:27;;;;;;;0.50;0.50;;;;;;;5.22;89.13;97402.06;5004898;28;20077;-63
2023/12/04 01:43:54;;;;;;;0.50;0.50;;;;;;;5.29;88.91;97407.88;5005053;28;20054;-62
2023/12/04 01:46:21;;;;;;;0.50;0.50;;;;;;;5.19;88.02;97407.41;5004510;28;20049;-64
2023/12/04 01:48:49;;;;;;;0.50;0.50;;;;;;;4.98;88.56;97362.56;5003550;28;20050;-63
2023/12/04 01:51:17;;;;;;;0.50;0.50;;;;;;;5.00;90.63;97420.66;5004812;28;20428;-62
2023/12/04 01:53:44;;;;;;;0.50;0.50;;;;;;;4.86;93.33;97428.28;5003507;28;20058;-62
2023/12/04 01:56:11;;;;;;;0.40;0.40;;;;;;;4.44;94.02;97386.03;5003313;28;20058;-61
2023/12/04 01:58:38;;;;;;;0.50;0.50;;;;;;;4.77;93.37;97433.78;5004347;28;20049;-62
2023/12/04 02:01:06;;;;;;;0.40;0.40;;;;;;;4.47;94.10;97424.56;5004661;28;20456;-62
2023/12/04 02:03:33;;;;;;;0.50;0.50;;;;;;;4.38;94.83;97404.56;5003298;28;20542;-63
2023/12/04 02:06:03;;;;;;;0.40;0.40;;;;;;;4.51;93.41;97428.28;5004480;28;20057;-62
2023/12/04 02:08:30;;;;;;;0.50;0.50;;;;;;;4.34;95.04;97424.72;5003325;28;20053;-62
2023/12/04 02:10:57;;;;;;;0.40;0.40;;;;;;;4.36;94.56;97434.22;5004931;28;20483;-63
2023/12/04 02:13:24;;;;;;;0.43;0.43;;;;;;;4.35;93.99;97427.16;5004781;28;20069;-62
2023/12/04 02:15:54;;;;;;;0.40;0.40;;;;;;;4.39;94.03;97432.81;5004451;28;20483;-61
2023/12/04 02:18:22;;;;;;;0.40;0.40;;;;;;;4.20;94.52;97446.81;5004851;28;20053;-61
2023/12/04 02:20:49;;;;;;;0.40;0.40;;;;;;;3.27;96.47;97318.59;5004648;28;20151;-61
2023/12/04 02:23:15;;;;;;;0.40;0.40;;;;;;;4.08;97.38;97454.84;5003597;28;20054;-62
2023/12/04 02:25:42;;;;;;;0.40;0.40;;;;;;;4.07;95.68;97453.22;5004637;28;20054;-62
2023/12/04 02:28:13;;;;;;;0.40;0.40;;;;;;;4.02;97.61;97450.63;5004009;28;20080;-61
2023/12/04 02:30:43;;;;;;;0.40;0.40;;;;;;;3.98;97.48;97422.22;5003801;28;20568;-63
2023/12/04 02:33:11;;;;;;;0.38;0.38;;;;;;;3.96;95.55;97451.91;5003321;28;20050;-62
2023/12/04 02:35:40;;;;;;;0.40;0.40;;;;;;;4.14;94.87;97456.28;5004120;28;20140;-61
2023/12/04 02:38:07;;;;;;;0.40;0.40;;;;;;;4.24;95.72;97461.47;5005553;28;20550;-61
2023/12/04 02:40:35;;;;;;;0.50;0.50;;;;;;;4.10;93.72;97411.47;5006528;28;20068;-64
2023/12/04 02:43:01;;;;;;;0.43;0.43;;;;;;;4.37;94.02;97468.78;5008206;28;20053;-63
2023/12/04 02:45:28;;;;;;;0.40;0.40;;;;;;;4.42;92.70;97471.38;5008022;28;20057;-61
2023/12/04 02:47:55;;;;;;;0.40;0.40;;;;;;;4.53;92.10;97464.44;5006359;28;20124;-61
2023/12/04 02:50:22;;;;;;;0.50;0.50;;;;;;;4.56;92.56;97458.31;5007542;28;20050;-61
2023/12/04 02:52:49;;;;;;;0.40;0.40;;;;;;;4.54;91.25;97452.34;5006376;28;20061;-62
2023/12/04 02:55:16;;;;;;;0.40;0.40;;;;;;;4.58;90.72;97452.50;5006658;28;20133;-61
2023/12/04 02:57:43;;;;;;;0.50;0.50;;;;;;;4.59;90.50;97443.13;5007889;28;20132;-63
2023/12/04 03:00:10;;;;;;;0.50;0.50;;;;;;;4.47;89.89;97462.97;5007563;28;20108;-61
2023/12/04 03:02:37;;;;;;;0.43;0.43;;;;;;;4.51;89.68;97463.94;5006352;28;20065;-65
2023/12/04 03:05:04;;;;;;;0.50;0.50;;;;;;;4.15;88.98;97394.06;5006477;28;20054;-61
2023/12/04 03:07:31;;;;;;;0.40;0.40;;;;;;;4.57;89.52;97446.19;5007417;28;20500;-62
2023/12/04 03:09:57;;;;;;;0.43;0.43;;;;;;;4.28;90.00;97421.31;5006228;28;20053;-61
2023/12/04 03:12:24;;;;;;;0.40;0.40;;;;;;;4.74;90.15;97472.03;5006140;28;20054;-61
2023/12/04 03:14:51;;;;;;;0.50;0.50;;;;;;;2.21;89.09;97101.16;5006348;28;20136;-62
2023/12/04 03:17:18;;;;;;;0.50;0.50;;;;;;;4.72;88.91;97490.75;5007113;28;20072;-61
2023/12/04 03:19:44;;;;;;;0.40;0.40;;;;;;;4.59;88.30;97452.19;5007263;28;20070;-61
2023/12/04 03:22:12;;;;;;;0.50;0.50;;;;;;;4.98;88.58;97488.84;5007147;28;20054;-63
2023/12/04 03:24:39;;;;;;;0.50;0.50;;;;;;;5.01;87.78;97474.47;5007541;28;20065;-61
2023/12/04 03:27:06;;;;;;;0.50;0.50;;;;;;;4.67;87.42;97417.66;5006873;28;20049;-61
2023/12/04 03:29:33;;;;;;;0.40;0.40;;;;;;;5.20;87.49;97485.91;5006918;28;20052;-63
2023/12/04 03:31:59;;;;;;;0.50;0.50;;;;;;;5.25;87.27;97491.25;5007016;28;20053;-61
2023/12/04 03:34:26;;;;;;;0.50;0.50;;;;;;;4.66;87.25;97438.78;5007040;28;20054;-61
2023/12/04 03:36:53;;;;;;;0.50;0.50;;;;;;;5.15;86.91;97499.81;5005405;28;20507;-61
2023/12/04 03:39:20;;;;;;;0.50;0.50;;;;;;;5.15;86.50;97489.63;5007016;28;20061;-61
2023/12/04 03:41:47;;;;;;;0.50;0.50;;;;;;;5.19;86.43;97495.25;5006949;28;20440;-63
2023/12/04 03:44:14;;;;;;;0.50;0.50;;;;;;;5.15;86.66;97489.63;5005172;28;20133;-61
2023/12/04 03:46:41;;;;;;;0.50;0.50;;;;;;;5.11;87.15;97471.38;5006485;28;20046;-61
2023/12/04 03:49:07;;;;;;;0.50;0.50;;;;;;;4.85;88.14;97407.47;5004984;28;20050;-61
2023/12/04 03:51:34;;;;;;;0.52;0.52;;;;;;;5.36;86.97;97487.03;5005263;28;20235;-62
2023/12/04 03:54:01;;;;;;;0.50;0.50;;;;;;;5.00;88.39;97506.59;5006911;28;20050;-61
2023/12/04 03:56:28;;;;;;;0.50;0.50;;;;;;;4.82;88.97;97435.56;5006293;28;20054;-62
2023/12/04 03:58:55;;;;;;;0.50;0.50;;;;;;;5.09;86.55;97474.44;5006477;28;20538;-61
2023/12/04 04:01:22;;;;;;;0.50;0.50;;;;;;;5.16;82.92;97509.66;5004423;28;20050;-63
2023/12/04 04:03:48;;;;;;;0.50;0.50;;;;;;;5.03;79.75;97510.63;5006842;28;20054;-62
2023/12/04 04:06:15;;;;;;;0.45;0.45;;;;;;;4.76;80.47;97472.53;5006070;28;20139;-61
2023/12/04 04:08:42;;;;;;;0.40;0.40;;;;;;;5.25;82.27;97515.97;5006381;28;20445;-61
2023/12/04 04:11:09;;;;;;;0.50;0.50;;;;;;;5.25;81.80;97515.97;5006327;28;20437;-61
2023/12/04 04:13:36;;;;;;;0.50;0.50;;;;;;;5.15;82.69;97514.34;5006305;28;20057;-62
2023/12/04 04:16:03;;;;;;;0.50;0.50;;;;;;;5.25;84.00;97529.69;5004470;28;20550;-61
2023/12/04 04:18:30;;;;;;;0.50;0.50;;;;;;;5.18;85.40;97519.19;5006225;28;20050;-61
2023/12/04 04:20:57;;;;;;;0.50;0.50;;;;;;;4.91;87.20;97469.28;5004836;28;20045;-61
2023/12/04 04:23:24;;;;;;;0.50;0.50;;;;;;;4.69;86.82;97427.16;5004750;28;20393;-62
2023/12/04 04:25:51;;;;;;;0.50;0.50;;;;;;;5.22;86.05;97542.13;5004336;28;20056;-61
2023/12/04 04:28:17;;;;;;;0.50;0.50;;;;;;;5.11;85.54;97504.31;5004703;28;20448;-62
2023/12/04 04:30:44;;;;;;;0.50;0.50;;;;;;;5.15;85.87;97527.25;5005867;28;20046;-61
2023/12/04 04:33:11;;;;;;;0.50;0.50;;;;;;;5.19;86.38;97526.28;5004577;28;20303;-61
2023/12/04 04:35:38;;;;;;;0.50;0.50;;;;;;;5.01;86.14;97516.44;5004259;28;20053;-62
2023/12/04 04:38:04;;;;;;;0.50;0.50;;;;;;;5.10;85.57;97535.66;5005534;28;20064;-61
2023/12/04 04:40:31;;;;;;;0.60;0.60;;;;;;;4.90;84.15;97515.13;5005419;28;20111;-61
2023/12/04 04:42:58;;;;;;;0.50;0.50;;;;;;;4.81;83.29;97517.06;5005908;28;20057;-62
2023/12/04 04:45:25;;;;;;;0.50;0.50;;;;;;;5.09;83.74;97534.06;5005758;28;20049;-61
2023/12/04 04:47:52;;;;;;;0.40;0.40;;;;;;;5.06;83.00;97532.75;5005373;28;20141;-61
2023/12/04 04:50:18;;;;;;;0.50;0.50;;;;;;;4.77;83.21;97501.56;5005547;28;20595;-61
2023/12/04 04:52:45;;;;;;;0.50;0.50;;;;;;;4.88;83.44;97502.88;5004005;28;20065;-60
2023/12/04 04:55:12;;;;;;;0.50;0.50;;;;;;;5.22;82.01;97538.56;5005590;28;20445;-61
2023/12/04 04:57:59;;;;;;;0.50;0.50;;;;;;;5.10;80.18;97546.63;5005700;28;20060;-60
2023/12/04 05:00:27;;;;;;;0.50;0.50;;;;;;;5.17;80.72;97547.75;5003057;28;20278;-62
2023/12/04 05:02:54;;;;;;;0.50;0.50;;;;;;;5.17;80.17;97546.97;5003970;28;20139;-63
2023/12/04 05:05:20;;;;;;;0.50;0.50;;;;;;;5.18;79.67;97565.06;5003942;28;20054;-62
2023/12/04 05:07:47;;;;;;;0.50;0.50;;;;;;;5.13;79.84;97526.78;5005285;28;20251;-61
2023/12/04 05:10:14;;;;;;;0.50;0.50;;;;;;;5.32;79.63;97551.97;5005079;28;20516;-61
2023/12/04 05:12:41;;;;;;;0.52;0.52;;;;;;;4.99;78.95;97485.78;5003463;28;20052;-61
2023/12/04 05:15:08;;;;;;;0.50;0.50;;;;;;;5.35;79.86;97554.06;5003673;28;20116;-61
2023/12/04 05:17:35;;;;;;;0.50;0.50;;;;;;;5.15;79.12;97551.97;5005177;28;20069;-61
2023/12/04 05:20:01;;;;;;;0.50;0.50;;;;;;;5.29;80.07;97566.34;5004857;28;20053;-61
2023/12/04 05:22:28;;;;;;;0.50;0.50;;;;;;;5.32;80.27;97562.94;5005132;28;20232;-61
2023/12/04 05:24:55;;;;;;;0.50;0.50;;;;;;;4.77;80.65;97483.19;5004798;28;20525;-61
2023/12/04 05:27:22;;;;;;;0.50;0.50;;;;;;;5.32;80.95;97557.47;5003505;28;20135;-61
2023/12/04 05:29:49;;;;;;;0.50;0.50;;;;;;;5.39;81.18;97555.03;5005097;28;20128;-61
2023/12/04 05:32:15;;;;;;;0.50;0.50;;;;;;;5.42;81.45;97570.88;5003828;28;20060;-62
2023/12/04 05:34:42;;;;;;;0.50;0.50;;;;;;;5.30;81.05;97581.69;5005152;28;20068;-61
2023/12/04 05:37:09;;;;;;;0.50;0.50;;;;;;;5.18;80.36;97576.03;5003360;28;20464;-61
2023/12/04 05:39:36;;;;;;;0.50;0.50;;;;;;;5.26;80.38;97589.78;5005146;28;20054;-60
2023/12/04 05:42:03;;;;;;;0.50;0.50;;;;;;;5.26;80.26;97573.31;5003266;28;20056;-63
2023/12/04 05:44:31;;;;;;;0.50;0.50;;;;;;;5.23;80.32;97562.16;4990360;28;20050;-60
2023/12/04 05:46:58;;;;;;;0.50;0.50;;;;;;;5.15;79.77;97549.22;4984836;28;20076;-60
2023/12/04 05:49:24;;;;;;;0.40;0.40;;;;;;;5.32;81.11;97584.94;4984607;28;20054;-61
2023/12/04 05:51:51;;;;;;;0.50;0.50;;;;;;;5.29;80.03;97589.13;4983043;28;20062;-63
2023/12/04 05:54:18;;;;;;;0.50;0.50;;;;;;;4.69;79.96;97525.94;4984309;28;20073;-60
2023/12/04 05:56:45;;;;;;;0.50;0.50;;;;;;;5.10;79.27;97591.38;4984129;28;20085;-60
2023/12/04 05:59:12;;;;;;;0.50;0.50;;;;;;;5.10;79.15;97612.53;4998719;28;20054;-63
2023/12/04 06:01:38;;;;;;;0.50;0.50;;;;;;;4.94;77.22;97575.69;5004305;28;20523;-61
2023/12/04 06:04:05;;;;;;;0.50;0.50;;;;;;;5.17;78.41;97602.69;5004608;28;20061;-62
2023/12/04 06:06:32;;;;;;;0.50;0.50;;;;;;;5.33;78.56;97597.50;5004959;28;20045;-61
2023/12/04 06:08:59;;;;;;;0.50;0.50;;;;;;;5.41;77.43;97607.69;5004942;28;20080;-62
2023/12/04 06:11:25;;;;;;;0.50;0.50;;;;;;;5.47;76.73;97606.44;5006488;28;20138;-61
2023/12/04 06:13:52;;;;;;;0.50;0.50;;;;;;;4.93;75.34;97541.16;5008258;28;20108;-61
2023/12/04 06:16:19;;;;;;;0.60;0.60;;;;;;;5.56;75.74;97609.97;5007158;28;20048;-62
2023/12/04 06:18:46;;;;;;;0.52;0.52;;;;;;;5.66;74.71;97615.13;4981573;28;20050;-62
2023/12/04 06:21:13;;;;;;;0.50;0.50;;;;;;;5.74;73.08;97622.53;4988534;28;20050;-61
2023/12/04 06:23:40;;;;;;;0.50;0.50;;;;;;;5.76;71.81;97610.13;4988386;28;20077;-61
2023/12/04 06:26:08;;;;;;;0.55;0.55;;;;;;;5.88;71.82;97629.53;4989010;28;20122;-61
2023/12/04 06:28:36;;;;;;;0.55;0.55;;;;;;;5.86;71.04;97620.00;4988607;28;20054;-64
2023/12/04 06:31:03;;;;;;;0.50;0.50;;;;;;;5.83;72.16;97587.66;4989062;28;20069;-60
2023/12/04 06:33:30;;;;;;;0.40;0.40;;;;;;;6.05;70.15;97639.69;4988984;28;20467;-61
2023/12/04 06:35:57;;;;;;;0.60;0.60;;;;;;;6.22;67.53;97633.34;4988695;28;20300;-60
2023/12/04 06:38:25;;;;;;;0.50;0.50;;;;;;;5.38;67.78;97619.34;4983485;28;20050;-60
2023/12/04 06:40:52;;;;;;;0.57;0.57;;;;;;;5.04;69.17;97608.34;4984644;28;20105;-67
2023/12/04 06:43:19;;;;;;;0.50;0.50;;;;;;;4.66;72.38;97658.25;4988653;28;20054;-61
2023/12/04 06:45:46;;;;;;;0.50;0.50;;;;;;;4.13;74.00;97588.19;4986810;28;20050;-68
2023/12/04 06:48:15;;;;;;;0.50;0.50;;;;;;;4.45;75.48;97618.00;4986523;28;20062;-61
2023/12/04 06:50:42;;;;;;;0.50;0.50;;;;;;;4.81;77.66;97620.53;4987456;28;20082;-72
2023/12/04 06:53:08;;;;;;;0.50;0.50;;;;;;;4.97;78.82;97602.50;4987911;28;20410;-62
2023/12/04 06:55:35;;;;;;;0.50;0.50;;;;;;;5.28;78.55;97691.06;4988337;28;20058;-64
2023/12/04 06:58:02;;;;;;;0.50;0.50;;;;;;;4.76;81.00;97530.16;4986249;28;20133;-71
2023/12/04 07:00:29;;;;;;;0.50;0.50;;;;;;;5.45;82.01;97620.50;4987723;28;20078;-66
2023/12/04 07:02:56;;;;;;;0.50;0.50;;;;;;;5.91;82.50;97655.56;4987573;28;20050;-62
2023/12/04 07:05:23;;;;;;;0.60;0.60;;;;;;;5.08;81.93;97521.44;4988083;28;20503;-69
2023/12/04 07:07:50;;;;;;;0.50;0.50;;;;;;;6.11;80.05;97650.19;4987661;28;20066;-65
2023/12/04 07:10:17;;;;;;;0.50;0.50;;;;;;;5.85;80.22;97583.44;4988443;28;20084;-74
2023/12/04 07:12:44;;;;;;;0.50;0.50;;;;;;;5.75;80.43;97629.69;4986969;28;20512;-73
2023/12/04 07:15:11;;;;;;;0.52;0.52;;;;;;;5.95;76.89;97620.78;4987589;28;20046;-68
2023/12/04 07:17:40;;;;;;;0.50;0.50;;;;;;;4.97;78.01;97448.78;4986026;28;20604;-74
2023/12/04 07:20:07;;;;;;;0.50;0.50;;;;;;;5.62;79.96;97669.94;4987150;28;20149;-60
2023/12/04 07:22:34;;;;;;;0.50;0.50;;;;;;;5.01;81.08;97652.91;4986369;28;20105;-63
2023/12/04 07:25:06;;;;;;;0.50;0.50;;;;;;;4.36;84.50;97619.91;4987639;28;20400;-63
2023/12/04 07:27:34;;;;;;;0.50;0.50;;;;;;;3.78;85.53;97537.88;4987361;28;20073;-68
2023/12/04 07:30:02;;;;;;;0.50;0.50;;;;;;;4.43;86.96;97675.94;4987294;28;20085;-63
2023/12/04 07:32:30;;;;;;;0.50;0.50;;;;;;;4.82;86.03;97633.16;4987039;28;20050;-63
2023/12/04 07:34:58;;;;;;;0.45;0.45;;;;;;;5.50;83.21;97677.22;4987489;28;20054;-62
2023/12/04 07:37:26;;;;;;;0.50;0.50;;;;;;;4.87;82.83;97674.97;4985236;28;20066;-63
2023/12/04 07:39:53;;;;;;;0.50;0.50;;;;;;;4.49;86.11;97608.00;4986160;28;20046;-71
2023/12/04 07:42:19;;;;;;;0.40;0.40;;;;;;;4.25;87.72;97643.25;4987337;28;20070;-72
2023/12/04 07:44:47;;;;;;;0.40;0.40;;;;;;;4.58;90.25;97681.00;4986755;28;20514;-63
2023/12/04 07:47:15;;;;;;;0.50;0.50;;;;;;;4.80;90.80;97613.44;4986756;28;20054;-71
2023/12/04 07:49:45;;;;;;;0.50;0.50;;;;;;;5.35;86.83;97641.97;4985546;28;20060;-73
2023/12/04 07:52:12;;;;;;;0.50;0.50;;;;;;;5.67;82.24;97690.94;4981900;28;20057;-64
2023/12/04 07:54:39;;;;;;;0.60;0.60;;;;;;;5.96;83.59;97696.63;5010911;28;20054;-66
2023/12/04 07:57:06;;;;;;;0.50;0.50;;;;;;;6.03;82.59;97692.28;5001753;28;20444;-69
2023/12/04 07:59:32;;;;;;;0.50;0.50;;;;;;;6.05;82.12;97691.94;5000167;28;20115;-69
2023/12/04 08:01:59;;;;;;;0.50;0.50;;;;;;;6.39;81.34;97683.63;4995606;28;20139;-64
2023/12/04 08:04:27;;;;;;;0.60;0.60;;;;;;;5.77;77.50;97602.69;5004841;28;20053;-74
2023/12/04 08:06:54;;;;;;;0.50;0.50;;;;;;;5.60;77.86;97644.72;5004502;28;20516;-70
2023/12/04 08:09:21;;;;;;;0.50;0.50;;;;;;;6.00;78.94;97692.09;5006014;28;20068;-64
2023/12/04 08:11:48;;;;;;;0.50;0.50;;;;;;;6.10;80.11;97698.06;5006632;28;20081;-65
2023/12/04 08:14:16;;;;;;;0.60;0.60;;;;;;;5.82;78.53;97695.97;5005981;28;20560;-71
2023/12/04 08:16:42;;;;;;;0.50;0.50;;;;;;;5.59;79.07;97700.00;5006573;28;20080;-71
2023/12/04 08:19:09;;;;;;;0.50;0.50;;;;;;;5.66;79.20;97642.59;5005781;28;20560;-63
2023/12/04 08:21:36;;;;;;;0.50;0.50;;;;;;;6.47;79.83;97699.31;5006705;28;20054;-65
2023/12/04 08:24:03;;;;;;;0.50;0.50;;;;;;;5.91;75.44;97677.56;5004716;28;20042;-67
2023/12/04 08:26:30;;;;;;;0.50;0.50;;;;;;;5.29;76.40;97567.16;5003893;28;20054;-62
2023/12/04 08:28:56;;;;;;;0.60;0.60;;;;;;;5.98;77.11;97650.38;5002456;28;20060;-61
2023/12/04 08:31:23;;;;;;;0.60;0.60;;;;;;;5.30;75.20;97562.47;4985564;28;20046;-63
2023/12/04 08:33:51;;;;;;;0.55;0.55;;;;;;;6.24;76.92;97703.41;5000871;28;20192;-66
2023/12/04 08:36:17;;;;;;;0.60;0.60;;;;;;;6.42;76.96;97665.66;5004820;28;20057;-63
2023/12/04 08:38:44;;;;;;;0.60;0.60;;;;;;;6.01;73.54;97553.47;5001881;28;20058;-63
2023/12/04 08:41:11;;;;;;;0.60;0.60;;;;;;;7.38;72.60;97705.84;5004286;28;20125;-61
2023/12/04 08:43:38;;;;;;;0.60;0.60;;;;;;;5.63;70.45;97505.84;5005332;28;20081;-71
2023/12/04 08:46:05;;;;;;;0.60;0.60;;;;;;;7.29;70.59;97658.28;5004826;28;20058;-69
2023/12/04 08:48:32;;;;;;;0.57;0.57;;;;;;;6.60;69.31;97596.47;5004938;28;20061;-67
2023/12/04 08:50:59;;;;;;;0.63;0.63;;;;;;;6.35;70.10;97558.88;5004786;28;20060;-72
2023/12/04 08:53:26;;;;;;;0.60;0.60;;;;;;;6.63;71.91;97622.50;5003055;28;20053;-66
2023/12/04 08:55:53;;;;;;;0.60;0.60;;;;;;;7.24;71.72;97705.31;5012976;28;20556;-61
2023/12/04 08:58:21;;;;;;;0.60;0.60;;;;;;;7.16;70.74;97713.63;5010091;28;20142;-63
2023/12/04 09:00:48;;;;;;;0.60;0.60;;;;;;;6.65;73.44;97768.88;5004031;28;20425;-62
2023/12/04 09:03:15;;;;;;;0.60;0.60;;;;;;;7.27;74.77;97721.16;5013505;28;20076;-63
2023/12/04 09:05:52;;;;;;;0.60;0.60;;;;;;;6.22;73.59;97724.94;5024784;28;20076;-65
2023/12/04 09:08:19;;;;;;;0.60;0.60;;;;;;;6.46;75.38;97760.16;4997897;28;20089;-63
2023/12/04 09:11:03;;;;;;;0.60;0.60;;;;;;;7.26;73.57;97718.75;5005793;28;20583;-63
2023/12/04 09:13:48;;;;;;;0.60;0.60;;;;;;;5.63;72.15;97610.28;4991417;28;20418;-63
2023/12/04 09:16:15;;;;;;;0.60;0.60;;;;;;;6.18;74.44;97681.91;5002237;28;20056;-69
2023/12/04 09:18:42;;;;;;;0.60;0.60;;;;;;;5.65;73.58;97492.59;4998744;28;20508;-61
2023/12/04 09:21:09;;;;;;;0.60;0.60;;;;;;;7.44;73.89;97699.03;4986786;28;20042;-64
2023/12/04 09:23:36;;;;;;;0.60;0.60;;;;;;;7.36;68.66;97669.59;4980014;28;20046;-64
2023/12/04 09:26:03;;;;;;;0.60;0.60;;;;;;;6.55;70.25;97632.41;4980629;28;20167;-67
2023/12/04 09:28:30;;;;;;;0.60;0.60;;;;;;;7.42;70.63;97701.31;4984543;28;20070;-67
2023/12/04 09:30:56;;;;;;;0.70;0.70;;;;;;;7.08;72.08;97624.38;4985502;28;20142;-67
2023/12/04 09:33:23;;;;;;;0.60;0.60;;;;;;;7.81;71.55;97657.91;4985310;28;20086;-67
2023/12/04 09:35:50;;;;;;;0.60;0.60;;;;;;;7.95;68.84;97655.66;4976943;28;20101;-67
2023/12/04 09:38:17;;;;;;;0.60;0.60;;;;;;;8.37;68.26;97687.56;4983166;28;20054;-66
2023/12/04 09:40:44;;;;;;;0.60;0.60;;;;;;;7.22;67.11;97580.84;4985079;28;20066;-67
2023/12/04 09:43:11;;;;;;;0.60;0.60;;;;;;;6.64;70.44;97646.94;4983614;28;20237;-67
2023/12/04 09:45:40;;;;;;;0.70;0.70;;;;;;;6.70;70.32;97612.59;4984442;28;20533;-68
2023/12/04 09:48:09;;;;;;;0.70;0.70;;;;;;;7.12;69.66;97680.41;4984868;28;20057;-67
2023/12/04 09:50:37;;;;;;;0.70;0.70;;;;;;;6.36;71.32;97543.97;4983554;28;20046;-66
2023/12/04 09:53:10;;;;;;;0.50;0.50;;;;;;;6.48;73.30;97691.88;4984908;28;20051;-66
2023/12/04 09:55:37;;;;;;;0.60;0.60;;;;;;;6.01;74.05;97567.22;4983055;28;20166;-66
2023/12/04 09:58:05;;;;;;;0.60;0.60;;;;;;;7.22;71.96;97684.75;4984952;28;20428;-67
2023/12/04 10:00:32;;;;;;;0.70;0.70;;;;;;;6.92;70.75;97587.56;4983479;28;20062;-68
2023/12/04 10:03:00;;;;;;;0.60;0.60;;;;;;;7.62;69.39;97688.69;4975697;28;20082;-68
2023/12/04 10:05:27;;;;;;;0.60;0.60;;;;;;;7.22;69.50;97619.41;4965420;28;20059;-68
2023/12/04 10:07:54;;;;;;;0.60;0.60;;;;;;;7.11;71.14;97695.31;4965253;28;20576;-67
2023/12/04 10:10:21;;;;;;;0.60;0.60;;;;;;;6.62;70.89;97533.63;4965449;28;20958;-67
2023/12/04 10:12:47;;;;;;;0.60;0.60;;;;;;;7.10;71.94;97566.19;4965319;28;20055;-67
2023/12/04 10:15:16;;;;;;;0.70;0.70;;;;;;;8.21;71.03;97678.28;4964479;28;20074;-66
2023/12/04 10:17:43;;;;;;;0.70;0.70;;;;;;;7.94;72.40;97681.59;4964108;28;20089;-68
2023/12/04 10:20:17;;;;;;;0.70;0.70;;;;;;;7.98;70.30;97680.63;4965522;28;20063;-68
2023/12/04 10:22:54;;;;;;;0.70;0.70;;;;;;;7.97;71.07;97683.69;4972486;28;20437;-67
2023/12/04 10:25:22;;;;;;;0.60;0.60;;;;;;;7.42;71.35;97679.25;4984475;28;20090;-66
2023/12/04 10:27:48;;;;;;;0.70;0.70;;;;;;;7.13;72.07;97541.53;4983012;28;20074;-68
2023/12/04 10:30:26;;;;;;;0.60;0.60;;;;;;;8.20;67.34;97665.63;4970035;28;20441;-67
2023/12/04 10:33:00;;;;;;;0.70;0.70;;;;;;;7.87;67.19;97569.09;4971792;28;20505;-67
2023/12/04 10:35:32;;;;;;;0.68;0.68;;;;;;;6.71;68.39;97575.69;4983346;28;20129;-66
2023/12/04 10:37:59;;;;;;;0.70;0.70;;;;;;;7.45;71.16;97688.81;4979314;28;20169;-66
2023/12/04 10:40:28;;;;;;;0.63;0.63;;;;;;;7.90;67.34;97688.97;4963663;28;20061;-67
2023/12/04 10:43:18;;;;;;;0.70;0.70;;;;;;;7.71;67.22;97665.41;4973566;28;20092;-67
2023/12/04 10:45:46;;;;;;;0.70;0.70;;;;;;;6.13;68.75;97531.63;4984590;28;20113;-67
2023/12/04 10:48:14;;;;;;;0.57;0.57;;;;;;;6.25;73.62;97683.00;4984642;28;20053;-67
2023/12/04 10:50:45;;;;;;;0.60;0.60;;;;;;;5.65;74.24;97630.00;4984292;28;20138;-66
2023/12/04 10:53:13;;;;;;;0.50;0.50;;;;;;;6.43;73.95;97679.09;4984624;28;20658;-67
2023/12/04 10:55:41;;;;;;;0.50;0.50;;;;;;;6.32;72.62;97688.00;4983469;28;20062;-68
2023/12/04 10:58:12;;;;;;;0.50;0.50;;;;;;;6.03;73.61;97685.97;4985958;28;20142;-67
2023/12/04 11:00:43;;;;;;;0.50;0.50;;;;;;;5.43;74.56;97589.78;4986691;28;20066;-67
2023/12/04 11:03:16;;;;;;;0.60;0.60;;;;;;;6.98;72.34;97685.34;4977813;28;20059;-67
2023/12/04 11:05:44;;;;;;;0.52;0.52;;;;;;;6.73;71.41;97683.53;4916219;28;20055;-67
2023/12/04 11:08:16;;;;;;;0.60;0.60;;;;;;;7.09;71.08;97659.06;1838128;28;10002031;-66
2023/12/04 11:10:57;;;;;;;0.60;0.60;;;;;;;6.45;68.50;97544.72;4974738;28;20081;-69
2023/12/04 11:13:31;;;;;;;0.60;0.60;;;;;;;7.07;68.41;97688.88;4995412;28;20165;-70
2023/12/04 11:16:27;;;;;;;0.60;0.60;;;;;;;6.03;68.75;97575.97;4994706;28;20093;-65
2023/12/04 11:19:17;;;;;;;0.60;0.60;;;;;;;5.73;71.01;97604.44;5005097;28;20054;-61
2023/12/04 11:21:46;;;;;;;0.57;0.57;;;;;;;5.41;72.06;97536.28;5006746;28;20132;-65
2023/12/04 11:24:13;;;;;;;0.60;0.60;;;;;;;6.82;71.60;97692.56;4996742;28;20050;-63
2023/12/04 11:26:41;;;;;;;0.60;0.60;;;;;;;6.69;69.97;97704.56;4996702;28;20128;-65
2023/12/04 11:29:11;;;;;;;0.60;0.60;;;;;;;6.84;68.60;97637.16;4998995;28;20058;-61
2023/12/04 11:31:38;;;;;;;0.60;0.60;;;;;;;6.65;70.30;97691.81;4997335;28;20151;-62
2023/12/04 11:34:07;;;;;;;0.60;0.60;;;;;;;6.83;71.10;97688.66;4997191;28;20049;-62
2023/12/04 11:36:34;;;;;;;0.60;0.60;;;;;;;5.97;68.85;97572.56;4993511;28;20125;-66
2023/12/04 11:39:02;;;;;;;0.60;0.60;;;;;;;5.53;72.02;97594.91;5003487;28;20436;-62
2023/12/04 11:41:30;;;;;;;0.50;0.50;;;;;;;5.35;72.65;97614.50;5000865;28;20053;-73
2023/12/04 11:43:57;;;;;;;0.60;0.60;;;;;;;5.63;72.26;97506.66;4999474;28;20065;-60